Latest Weather Observations for Canterbury

IDN60801

Issued at 10:05 am EST Sunday 31 August 2014 (issued every 30 minutes, with the page automatically refreshed every 10 minutes)

About weather observations | Map of weather stations | Latest weather observations for NSW | Other Formats
Station Details ID: 066194 Name: CANTERBURY RACECOURSE AWS Lat: -33.91 Lon: 151.11 Height: 3.0 m
Data from the previous 72 hours. | See also: Recent months at Canterbury
Date/Time
EST
Temp
°C
App
Temp
°C
Dew
Point
Rel
Hum
%
Delta-T
°C
Wind Press
QNH
hPa
Press
MSL
hPa
Rain
since 9 am
mm
Dir
 
Spd
km/h
Gust
km/h
Spd
kts
Gust
kts
31/10:00am 17.0 15.0 10.1 64 3.6 WSW 11 19 6 10 - - 0.0
31/09:30am 15.6 12.6 9.1 65 3.3 W 15 20 8 11 - - 0.0
31/09:00am 14.9 12.3 9.5 70 2.8 WSW 13 22 7 12 - - 1.2
31/08:30am 13.6 10.0 8.4 71 2.6 W 17 24 9 13 - - 1.2
31/08:00am 13.0 9.4 8.5 74 2.2 W 17 24 9 13 - - 1.2
31/07:30am 12.0 9.1 8.3 78 1.8 W 13 17 7 9 - - 1.2
31/07:00am 12.2 9.4 8.5 78 1.8 WSW 13 20 7 11 - - 1.2
31/06:30am 11.5 9.0 8.2 80 1.6 W 11 17 6 9 - - 1.2
31/06:00am 11.3 8.8 8.2 81 1.5 WSW 11 17 6 9 - - 1.2
31/05:30am 11.1 8.9 8.0 81 1.5 WSW 9 17 5 9 - - 1.2
31/05:00am 11.1 8.6 8.0 81 1.5 W 11 17 6 9 - - 1.2
31/04:30am 11.5 9.0 8.2 80 1.6 W 11 17 6 9 - - 1.2
31/04:00am 11.6 9.1 8.3 80 1.6 WSW 11 17 6 9 - - 1.2
31/03:30am 11.3 8.8 8.3 82 1.5 WSW 11 17 6 9 - - 1.2
31/03:00am 10.3 9.4 7.9 85 1.2 W 2 7 1 4 - - 1.2
31/02:30am 11.1 9.5 8.1 82 1.5 WSW 6 9 3 5 - - 1.2
31/02:00am 11.5 10.0 8.4 81 1.5 WSW 6 9 3 5 - - 1.2
31/01:30am 12.2 10.6 8.7 79 1.7 WSW 7 11 4 6 - - 1.2
31/01:00am 12.5 10.6 9.0 79 1.8 W 9 13 5 7 - - 1.2
31/12:30am 12.6 10.7 8.9 78 1.9 WSW 9 13 5 7 - - 1.2
31/12:00am 12.9 11.1 9.4 79 1.8 WSW 9 13 5 7 - - 1.2
 
Date/Time
EST
Temp
°C
App
Temp
°C
Dew
Point
Rel
Hum
%
Delta-T
°C
Wind Press
QNH
hPa
Press
MSL
hPa
Rain
since 9 am
mm
Dir
 
Spd
km/h
Gust
km/h
Spd
kts
Gust
kts
30/11:35pm 13.2 11.1 9.8 80 1.7 W 11 15 6 8 - - 1.2
30/11:30pm 13.1 11.4 9.7 80 1.7 W 9 15 5 8 - - 1.2
30/11:14pm 13.4 10.9 9.6 78 1.9 WSW 13 20 7 11 - - 1.2
30/11:00pm 13.9 11.7 9.3 74 2.3 WSW 11 17 6 9 - - 1.2
30/10:30pm 14.2 12.9 9.8 75 2.3 WSW 7 11 4 6 - - 1.2
30/10:00pm 14.3 11.9 9.9 75 2.3 SW 13 19 7 10 - - 1.2
30/09:30pm 14.2 12.5 9.8 75 2.3 WSW 9 13 5 7 - - 1.2
30/09:00pm 14.3 12.6 9.7 74 2.4 WSW 9 17 5 9 - - 1.2
30/08:30pm 14.6 13.0 10.2 75 2.3 SSW 9 15 5 8 - - 1.2
30/08:00pm 14.8 12.8 10.0 73 2.5 SW 11 17 6 9 - - 1.2
30/07:30pm 14.7 12.3 10.1 74 2.4 SSW 13 24 7 13 - - 1.2
30/07:00pm 14.7 12.4 10.3 75 2.3 SSW 13 24 7 13 - - 1.2
30/06:30pm 14.7 12.4 10.5 76 2.2 SSW 13 22 7 12 - - 1.2
30/06:00pm 14.8 11.8 10.8 77 2.1 SSW 17 28 9 15 - - 1.2
30/05:30pm 14.7 12.3 11.3 80 1.8 SW 15 28 8 15 - - 1.2
30/05:00pm 14.7 11.9 11.5 81 1.7 SSW 17 26 9 14 - - 1.2
30/04:30pm 15.4 12.5 11.0 75 2.3 S 17 24 9 13 - - 1.2
30/04:00pm 15.9 12.5 11.1 73 2.6 S 20 32 11 17 - - 1.2
30/03:30pm 15.9 11.6 10.9 72 2.7 SSW 24 43 13 23 - - 1.2
30/03:10pm 16.0 12.6 11.2 73 2.6 S 20 32 11 17 - - 1.2
30/03:00pm 15.7 12.9 11.5 76 2.3 S 17 30 9 16 - - 1.2
30/02:54pm 15.5 11.9 11.7 78 2.1 S 22 35 12 19 - - 1.2
30/02:30pm 15.7 11.9 11.3 75 2.4 S 22 33 12 18 - - 1.2
30/02:00pm 16.5 13.3 11.2 71 2.9 SSW 19 33 10 18 - - 1.2
30/01:30pm 16.6 12.5 11.3 71 2.9 S 24 33 13 18 - - 1.2
30/01:00pm 16.4 13.2 12.0 75 2.4 SSW 20 33 11 18 - - 1.2
30/12:31pm 15.2 12.2 12.1 82 1.7 SSW 19 26 10 14 - - 1.2
30/12:30pm 15.1 12.1 12.1 82 1.6 SSW 19 26 10 14 - - 1.2
30/12:00pm 14.5 11.4 12.2 86 1.2 SSW 20 32 11 17 - - 1.0
30/11:47am 15.2 12.1 12.1 82 1.7 SSW 20 35 11 19 - - 0.8
30/11:30am 15.6 12.2 12.4 81 1.8 SSW 22 35 12 19 - - 0.8
30/11:00am 15.2 11.3 12.0 81 1.7 SSW 24 44 13 24 - - 0.8
30/10:55am 14.9 10.9 11.9 82 1.6 SSW 24 44 13 24 - - 0.8
30/10:38am 14.5 11.3 11.8 84 1.5 SSW 20 39 11 21 - - 0.8
30/10:30am 14.4 11.0 11.4 82 1.6 SSW 20 39 11 21 - - 0.8
30/10:01am 13.4 10.2 11.1 86 1.2 SSW 19 30 10 16 - - 0.8
30/10:00am 13.4 10.2 11.1 86 1.2 SSW 19 30 10 16 - - 0.8
30/09:30am 13.1 11.0 11.0 87 1.1 SSW 13 19 7 10 - - 0.6
30/09:00am 12.7 10.9 10.9 89 0.9 SW 11 20 6 11 - - 0.6
30/08:36am 12.3 10.1 9.5 83 1.4 WSW 11 17 6 9 - - 0.4
30/08:30am 12.3 9.7 9.3 82 1.5 WSW 13 19 7 10 - - 0.4
30/08:00am 13.1 10.0 10.3 83 1.4 SW 17 26 9 14 - - 0.4
30/07:31am 13.1 9.9 9.9 81 1.6 SW 17 24 9 13 - - 0.4
30/07:30am 13.0 9.8 9.8 81 1.6 SSW 17 24 9 13 - - 0.4
30/07:14am 13.0 9.3 9.6 80 1.7 SSW 19 28 10 15 - - 0.4
30/07:00am 13.3 9.5 9.2 76 2.1 SSW 19 33 10 18 - - 0.4
30/06:54am 13.2 9.8 9.1 76 2.1 SSW 17 28 9 15 - - 0.4
30/06:36am 13.2 9.7 8.9 75 2.2 SSW 17 28 9 15 - - 0.4
30/06:30am 13.1 9.7 9.0 76 2.1 SSW 17 32 9 17 - - 0.4
30/06:00am 13.3 9.8 8.6 73 2.4 SSW 17 30 9 16 - - 0.4
30/05:30am 13.5 9.6 8.6 72 2.5 SSW 19 30 10 16 - - 0.4
30/05:00am 13.3 9.1 8.4 72 2.4 SSW 20 35 11 19 - - 0.4
30/04:30am 13.3 9.1 8.2 71 2.5 SSW 20 35 11 19 - - 0.4
30/04:00am 13.6 9.3 8.0 69 2.8 S 20 39 11 21 - - 0.4
30/03:30am 13.6 9.9 7.8 68 2.9 SSW 17 33 9 18 - - 0.4
30/03:00am 13.7 9.0 7.9 68 2.9 SSW 22 35 12 19 - - 0.4
30/02:30am 12.5 9.5 6.1 65 3.0 WSW 11 17 6 9 - - 0.4
30/02:00am 12.2 8.8 5.8 65 3.0 WSW 13 19 7 10 - - 0.4
30/01:30am 12.6 10.0 6.0 64 3.1 WSW 9 15 5 8 - - 0.4
30/01:00am 12.3 9.2 5.7 64 3.1 WSW 11 17 6 9 - - 0.4
30/12:30am 12.6 9.5 5.5 62 3.3 WSW 11 19 6 10 - - 0.4
30/12:00am 13.7 9.5 5.6 58 3.8 SW 17 32 9 17 - - 0.4
 
Date/Time
EST
Temp
°C
App
Temp
°C
Dew
Point
Rel
Hum
%
Delta-T
°C
Wind Press
QNH
hPa
Press
MSL
hPa
Rain
since 9 am
mm
Dir
 
Spd
km/h
Gust
km/h
Spd
kts
Gust
kts
29/11:30pm 13.5 10.0 5.4 58 3.8 SW 13 20 7 11 - - 0.4
29/11:00pm 13.6 9.7 5.5 58 3.8 SW 15 24 8 13 - - 0.4
29/10:30pm 13.6 9.9 6.2 61 3.5 SW 15 22 8 12 - - 0.4
29/10:00pm 13.6 10.3 6.5 62 3.4 SW 13 24 7 13 - - 0.4
29/09:30pm 13.3 10.4 6.4 63 3.3 SW 11 17 6 9 - - 0.4
29/09:00pm 14.2 9.3 5.3 55 4.2 SSW 20 32 11 17 - - 0.4
29/08:30pm 14.1 10.2 5.5 56 4.1 SSW 15 24 8 13 - - 0.4
29/08:00pm 14.5 9.8 6.1 57 4.0 S 20 39 11 21 - - 0.4
29/07:30pm 14.1 10.2 7.2 63 3.4 SSW 17 33 9 18 - - 0.4
29/07:00pm 14.1 10.5 8.5 69 2.8 SSW 17 26 9 14 - - 0.4
29/06:30pm 14.0 11.0 9.2 73 2.4 SSW 15 20 8 11 - - 0.4
29/06:00pm 14.5 11.1 9.3 71 2.7 SW 17 30 9 16 - - 0.4
29/05:30pm 14.8 11.4 9.2 69 2.9 S 17 24 9 13 - - 0.4
29/05:00pm 15.0 11.9 8.9 67 3.1 S 15 28 8 15 - - 0.4
29/04:30pm 15.2 11.4 9.1 67 3.1 SSW 19 32 10 17 - - 0.4
29/04:00pm 15.8 10.9 8.3 61 3.8 S 24 37 13 20 - - 0.4
29/03:30pm 15.7 11.2 8.4 62 3.7 S 22 43 12 23 - - 0.4
29/03:00pm 15.3 9.9 7.8 61 3.7 S 26 41 14 22 - - 0.4
29/02:30pm 16.6 11.5 7.5 55 4.6 S 24 41 13 22 - - 0.4
29/02:00pm 17.1 12.3 8.8 58 4.3 S 24 39 13 21 - - 0.4
29/01:30pm 15.9 10.8 7.7 58 4.1 S 24 43 13 23 - - 0.4
29/01:00pm 15.9 12.0 9.6 66 3.3 S 20 32 11 17 - - 0.4
29/12:30pm 14.9 11.2 9.5 70 2.8 S 19 32 10 17 - - 0.4
29/12:17pm 14.1 10.4 10.3 78 2.0 SSW 20 30 11 16 - - 0.4
29/12:00pm 13.3 9.0 10.7 84 1.4 SSE 24 39 13 21 - - 0.4
29/11:54am 14.0 9.3 10.6 80 1.8 SSE 26 39 14 21 - - 0.0
29/11:30am 16.3 12.2 8.5 60 4.0 SSW 20 37 11 20 - - 0.0
29/11:00am 14.5 11.3 9.9 74 2.4 SSW 17 24 9 13 - - 0.0
29/10:57am 14.5 11.3 10.1 75 2.3 SSW 17 26 9 14 - - 0.0
29/10:36am 13.9 9.2 9.1 73 2.4 S 24 35 13 19 - - 0.0
29/10:30am 15.0 10.4 8.3 64 3.4 S 22 33 12 18 - - 0.0
29/10:00am 15.1 12.4 9.0 67 3.1 SSW 13 20 7 11 - - 0.0
29/09:30am 14.0 11.4 9.4 74 2.4 WSW 13 22 7 12 - - 0.0
29/09:00am 12.6 10.3 8.9 78 1.9 WSW 11 17 6 9 - - 3.6
29/08:46am 12.3 9.6 9.1 81 1.6 WSW 13 20 7 11 - - 3.6
29/08:30am 11.8 9.2 9.4 85 1.2 WSW 13 19 7 10 - - 3.6
29/08:25am 11.8 9.1 9.0 83 1.4 WSW 13 19 7 10 - - 3.6
29/08:00am 10.2 7.9 7.6 84 1.2 W 9 15 5 8 - - 3.6
29/07:30am 9.3 6.6 7.3 87 0.9 WSW 11 15 6 8 - - 3.6
29/07:00am 8.5 6.1 6.8 89 0.8 W 9 13 5 7 - - 3.6
29/06:30am 8.2 6.0 6.3 88 0.9 W 7 11 4 6 - - 3.6
29/06:00am 8.5 6.0 6.5 87 0.9 WSW 9 13 5 7 - - 3.6
29/05:30am 9.0 7.0 7.0 87 0.9 W 7 13 4 7 - - 3.6
29/05:00am 8.8 7.4 7.1 89 0.8 W 4 7 2 4 - - 3.6
29/04:30am 8.4 6.5 6.9 90 0.7 W 6 9 3 5 - - 3.6
29/04:00am 8.2 6.3 6.7 90 0.7 W 6 9 3 5 - - 3.6
29/03:30am 8.2 6.6 6.5 89 0.8 W 4 9 2 5 - - 3.6
29/03:00am 8.4 6.3 6.7 89 0.8 W 7 9 4 5 - - 3.6
29/02:30am 8.8 6.8 7.1 89 0.8 WNW 7 9 4 5 - - 3.6
29/02:00am 9.1 7.7 7.4 89 0.8 NW 4 7 2 4 - - 3.6
29/01:30am 9.5 8.6 7.6 88 0.9 W 2 7 1 4 - - 3.6
29/01:00am 9.2 7.9 7.5 89 0.8 WSW 4 7 2 4 - - 3.6
29/12:30am 9.3 7.6 7.4 88 0.9 WSW 6 9 3 5 - - 3.6
29/12:00am 9.5 7.2 7.6 88 0.9 W 9 13 5 7 - - 3.6
 
Date/Time
EST
Temp
°C
App
Temp
°C
Dew
Point
Rel
Hum
%
Delta-T
°C
Wind Press
QNH
hPa
Press
MSL
hPa
Rain
since 9 am
mm
Dir
 
Spd
km/h
Gust
km/h
Spd
kts
Gust
kts
28/11:30pm 9.4 7.6 7.3 87 1.0 W 6 7 3 4 - - 3.6
28/11:00pm 9.6 7.9 7.4 86 1.0 W 6 9 3 5 - - 3.6
28/10:30pm 9.8 8.1 7.6 86 1.0 NW 6 7 3 4 - - 3.6
28/10:00pm 10.2 9.6 7.3 82 1.4 CALM 0 6 0 3 - - 3.6
28/09:30pm 10.0 9.4 7.3 83 1.3 CALM 0 0 0 0 - - 3.6
28/09:00pm 10.6 9.9 7.1 79 1.7 CALM 0 0 0 0 - - 3.6
28/08:30pm 11.4 9.5 6.7 73 2.2 WSW 6 9 3 5 - - 3.6
28/08:00pm 12.8 10.8 6.4 65 3.0 S 6 9 3 5 - - 3.6
28/07:30pm 13.8 11.3 6.7 62 3.4 SSE 9 11 5 6 - - 3.6
28/07:00pm 14.2 11.3 6.3 59 3.8 SSE 11 17 6 9 - - 3.6
28/06:30pm 14.4 11.7 7.5 63 3.4 SSE 11 15 6 8 - - 3.6
28/06:00pm 14.6 11.5 7.4 62 3.5 SSE 13 19 7 10 - - 3.6
28/05:30pm 15.1 11.3 7.4 60 3.8 SSE 17 24 9 13 - - 3.6
28/05:00pm 15.5 10.6 7.0 57 4.2 SSE 22 35 12 19 - - 3.6
28/04:30pm 15.9 11.3 8.2 60 3.9 SSE 22 35 12 19 - - 3.6
28/04:00pm 16.2 11.5 7.9 58 4.2 SSE 22 33 12 18 - - 3.6
28/03:30pm 16.7 12.2 8.7 59 4.1 SSE 22 35 12 19 - - 3.6
28/03:00pm 16.8 12.9 8.5 58 4.2 SSE 19 33 10 18 - - 3.6
28/02:30pm 16.7 11.1 8.7 59 4.1 SSE 28 39 15 21 - - 3.6
28/02:00pm 17.0 11.6 8.2 56 4.5 SSE 26 37 14 20 - - 3.6
28/01:30pm 17.2 12.0 8.9 58 4.3 SSE 26 39 14 21 - - 3.6
28/01:00pm 17.3 13.5 9.7 61 4.0 SSE 20 35 11 19 - - 3.6
28/12:30pm 17.2 12.4 10.3 64 3.7 SSE 26 37 14 20 - - 3.6
28/12:21pm 17.0 13.8 11.1 68 3.2 SSE 19 30 10 16 - - 3.6
28/12:01pm 15.7 11.9 11.1 74 2.5 S 22 35 12 19 - - 3.6
28/12:00pm 16.1 12.8 11.5 74 2.5 S 20 30 11 16 - - 3.6
28/11:30am 16.1 10.8 9.8 66 3.3 SSE 28 46 15 25 - - 3.4
28/11:00am 16.6 12.1 10.2 66 3.4 SE 24 35 13 19 - - 3.4
28/10:30am 15.4 13.2 12.0 80 1.8 S 15 22 8 12 - - 3.4
28/10:20am 15.1 14.0 13.0 87 1.2 S 11 17 6 9 - - 3.4

Other Formats:

Comma delimited format used in spreadsheet applications
http://www.bom.gov.au/fwo/IDN60801/IDN60801.94766.axf

JavaScript Object Notation format (JSON) in row-major order
http://www.bom.gov.au/fwo/IDN60801/IDN60801.94766.json